Terminal Aerodrome Forecast
Issued by NWS

Home | Current Version | Previous Version | Text Only | Print | Product List | Glossary On
Versions: 1 2 3 4 5 6 7 8 9 10 11 12 13 14 15 16 17 18 19 20 21
000
FTUS43 KGRB 230543 AAA
TAFAUW
TAF AMD
KAUW 230543Z 2306/2406 13009KT 3SM -FZRAPL BR SCT007 OVC014
      WS020/16035KT
      TEMPO 2306/2309 1SM -SN BR BKN007
     FM230900 15004KT 3SM -FZDZSN BR OVC007 WS020/20030KT
     FM231400 23005KT 4SM -FZDZ BR OVC009
     FM231600 27008G16KT P6SM OVC009
     FM232100 29007KT P6SM BKN011
     FM240300 30004KT P6SM SCT016=

USA.gov is the U.S. government's official web portal to all federal, state and local government web resources and services.